sensor_id;sensor_type;location;lat;lon;timestamp;P1;durP1;ratioP1;P2;durP2;ratioP2
17925;SDS011;9088;55.674;13.354;2023-05-07T00:00:55;2.80;;;2.70;;
17925;SDS011;9088;55.674;13.354;2023-05-07T00:03:24;2.80;;;2.70;;
17925;SDS011;9088;55.674;13.354;2023-05-07T00:05:52;2.80;;;2.70;;
17925;SDS011;9088;55.674;13.354;2023-05-07T00:08:19;2.70;;;2.60;;
17925;SDS011;9088;55.674;13.354;2023-05-07T00:10:46;2.70;;;2.60;;
17925;SDS011;9088;55.674;13.354;2023-05-07T00:13:13;2.80;;;2.70;;
17925;SDS011;9088;55.674;13.354;2023-05-07T00:15:42;2.83;;;2.73;;
17925;SDS011;9088;55.674;13.354;2023-05-07T00:18:09;2.70;;;2.60;;
17925;SDS011;9088;55.674;13.354;2023-05-07T00:20:36;2.80;;;2.70;;
17925;SDS011;9088;55.674;13.354;2023-05-07T00:23:03;3.00;;;2.90;;
17925;SDS011;9088;55.674;13.354;2023-05-07T00:25:30;2.80;;;2.70;;
17925;SDS011;9088;55.674;13.354;2023-05-07T00:27:57;3.00;;;2.90;;
17925;SDS011;9088;55.674;13.354;2023-05-07T00:30:28;2.70;;;2.60;;
17925;SDS011;9088;55.674;13.354;2023-05-07T00:32:56;2.73;;;2.63;;
17925;SDS011;9088;55.674;13.354;2023-05-07T00:35:24;2.80;;;2.70;;
17925;SDS011;9088;55.674;13.354;2023-05-07T00:37:51;2.80;;;2.70;;
17925;SDS011;9088;55.674;13.354;2023-05-07T00:40:18;2.80;;;2.70;;
17925;SDS011;9088;55.674;13.354;2023-05-07T00:42:45;2.87;;;2.77;;
17925;SDS011;9088;55.674;13.354;2023-05-07T00:45:14;2.73;;;2.63;;
17925;SDS011;9088;55.674;13.354;2023-05-07T00:47:41;2.80;;;2.70;;
17925;SDS011;9088;55.674;13.354;2023-05-07T00:50:10;2.80;;;2.70;;
17925;SDS011;9088;55.674;13.354;2023-05-07T00:52:37;2.90;;;2.80;;
17925;SDS011;9088;55.674;13.354;2023-05-07T00:55:05;3.00;;;2.90;;
17925;SDS011;9088;55.674;13.354;2023-05-07T00:57:33;2.80;;;2.70;;
17925;SDS011;9088;55.674;13.354;2023-05-07T01:00:03;3.00;;;2.90;;
17925;SDS011;9088;55.674;13.354;2023-05-07T01:02:30;3.10;;;3.00;;
17925;SDS011;9088;55.674;13.354;2023-05-07T01:04:57;3.03;;;2.93;;
17925;SDS011;9088;55.674;13.354;2023-05-07T01:07:25;3.07;;;2.97;;
17925;SDS011;9088;55.674;13.354;2023-05-07T01:09:52;3.20;;;3.10;;
17925;SDS011;9088;55.674;13.354;2023-05-07T01:12:20;3.10;;;3.00;;
17925;SDS011;9088;55.674;13.354;2023-05-07T01:14:47;3.00;;;2.90;;
17925;SDS011;9088;55.674;13.354;2023-05-07T01:17:15;3.20;;;3.10;;
17925;SDS011;9088;55.674;13.354;2023-05-07T01:19:42;3.10;;;3.00;;
17925;SDS011;9088;55.674;13.354;2023-05-07T01:22:10;3.00;;;2.90;;
17925;SDS011;9088;55.674;13.354;2023-05-07T01:24:39;3.20;;;3.10;;
17925;SDS011;9088;55.674;13.354;2023-05-07T01:27:06;3.13;;;3.03;;
17925;SDS011;9088;55.674;13.354;2023-05-07T01:29:33;3.20;;;3.10;;
17925;SDS011;9088;55.674;13.354;2023-05-07T01:32:00;3.30;;;3.20;;
17925;SDS011;9088;55.674;13.354;2023-05-07T01:34:28;3.20;;;3.10;;
17925;SDS011;9088;55.674;13.354;2023-05-07T01:36:57;3.20;;;3.10;;
17925;SDS011;9088;55.674;13.354;2023-05-07T01:39:24;3.20;;;3.10;;
17925;SDS011;9088;55.674;13.354;2023-05-07T01:41:54;3.10;;;3.00;;
17925;SDS011;9088;55.674;13.354;2023-05-07T01:44:21;3.20;;;3.10;;
17925;SDS011;9088;55.674;13.354;2023-05-07T01:46:49;3.20;;;3.10;;
17925;SDS011;9088;55.674;13.354;2023-05-07T01:49:16;3.20;;;3.10;;
17925;SDS011;9088;55.674;13.354;2023-05-07T01:51:43;3.30;;;3.20;;
17925;SDS011;9088;55.674;13.354;2023-05-07T01:54:10;3.27;;;3.17;;
17925;SDS011;9088;55.674;13.354;2023-05-07T01:56:37;3.20;;;3.10;;
17925;SDS011;9088;55.674;13.354;2023-05-07T01:59:06;3.20;;;3.10;;
17925;SDS011;9088;55.674;13.354;2023-05-07T02:01:33;3.20;;;3.10;;
17925;SDS011;9088;55.674;13.354;2023-05-07T02:04:00;3.30;;;3.20;;
17925;SDS011;9088;55.674;13.354;2023-05-07T02:06:27;3.13;;;3.03;;
17925;SDS011;9088;55.674;13.354;2023-05-07T02:08:54;3.30;;;3.20;;
17925;SDS011;9088;55.674;13.354;2023-05-07T02:11:21;3.30;;;3.20;;
17925;SDS011;9088;55.674;13.354;2023-05-07T02:13:48;3.20;;;3.10;;
17925;SDS011;9088;55.674;13.354;2023-05-07T02:16:16;3.20;;;3.10;;
17925;SDS011;9088;55.674;13.354;2023-05-07T02:18:44;3.20;;;3.10;;
17925;SDS011;9088;55.674;13.354;2023-05-07T02:21:11;3.20;;;3.10;;
17925;SDS011;9088;55.674;13.354;2023-05-07T02:23:38;3.20;;;3.10;;
17925;SDS011;9088;55.674;13.354;2023-05-07T02:26:05;3.20;;;3.10;;
17925;SDS011;9088;55.674;13.354;2023-05-07T02:28:33;3.10;;;3.00;;
17925;SDS011;9088;55.674;13.354;2023-05-07T02:31:01;3.20;;;3.10;;
17925;SDS011;9088;55.674;13.354;2023-05-07T02:33:30;3.10;;;3.00;;
17925;SDS011;9088;55.674;13.354;2023-05-07T02:36:04;3.10;;;3.00;;
17925;SDS011;9088;55.674;13.354;2023-05-07T02:38:32;3.30;;;3.20;;
17925;SDS011;9088;55.674;13.354;2023-05-07T02:40:59;3.40;;;3.30;;
17925;SDS011;9088;55.674;13.354;2023-05-07T02:43:26;3.37;;;3.27;;
17925;SDS011;9088;55.674;13.354;2023-05-07T02:45:59;3.23;;;3.13;;
17925;SDS011;9088;55.674;13.354;2023-05-07T02:48:27;3.30;;;3.20;;
17925;SDS011;9088;55.674;13.354;2023-05-07T02:50:56;3.40;;;3.30;;
17925;SDS011;9088;55.674;13.354;2023-05-07T02:53:23;3.47;;;3.37;;
17925;SDS011;9088;55.674;13.354;2023-05-07T02:55:51;3.40;;;3.30;;
17925;SDS011;9088;55.674;13.354;2023-05-07T02:58:18;3.50;;;3.40;;
17925;SDS011;9088;55.674;13.354;2023-05-07T03:00:45;3.73;;;3.63;;
17925;SDS011;9088;55.674;13.354;2023-05-07T03:03:12;3.60;;;3.50;;
17925;SDS011;9088;55.674;13.354;2023-05-07T03:05:39;3.70;;;3.60;;
17925;SDS011;9088;55.674;13.354;2023-05-07T03:08:07;3.60;;;3.50;;
17925;SDS011;9088;55.674;13.354;2023-05-07T03:10:34;3.80;;;3.70;;
17925;SDS011;9088;55.674;13.354;2023-05-07T03:13:02;3.60;;;3.50;;
17925;SDS011;9088;55.674;13.354;2023-05-07T03:15:29;3.60;;;3.50;;
17925;SDS011;9088;55.674;13.354;2023-05-07T03:17:56;3.53;;;3.43;;
17925;SDS011;9088;55.674;13.354;2023-05-07T03:20:23;3.87;;;3.77;;
17925;SDS011;9088;55.674;13.354;2023-05-07T03:22:50;3.60;;;3.50;;
17925;SDS011;9088;55.674;13.354;2023-05-07T03:25:18;3.80;;;3.70;;
17925;SDS011;9088;55.674;13.354;2023-05-07T03:27:45;3.70;;;3.60;;
17925;SDS011;9088;55.674;13.354;2023-05-07T03:30:12;3.80;;;3.70;;
17925;SDS011;9088;55.674;13.354;2023-05-07T03:32:39;5.50;;;5.30;;
17925;SDS011;9088;55.674;13.354;2023-05-07T03:35:06;5.67;;;5.47;;
17925;SDS011;9088;55.674;13.354;2023-05-07T03:37:33;5.60;;;5.40;;
17925;SDS011;9088;55.674;13.354;2023-05-07T03:40:00;5.90;;;5.70;;
17925;SDS011;9088;55.674;13.354;2023-05-07T03:42:30;5.90;;;5.70;;
17925;SDS011;9088;55.674;13.354;2023-05-07T03:44:57;5.93;;;5.73;;
17925;SDS011;9088;55.674;13.354;2023-05-07T03:47:24;5.70;;;5.50;;
17925;SDS011;9088;55.674;13.354;2023-05-07T03:49:51;5.53;;;5.33;;
17925;SDS011;9088;55.674;13.354;2023-05-07T03:52:19;5.60;;;5.40;;
17925;SDS011;9088;55.674;13.354;2023-05-07T03:54:50;5.60;;;5.40;;
17925;SDS011;9088;55.674;13.354;2023-05-07T03:57:17;5.80;;;5.60;;
17925;SDS011;9088;55.674;13.354;2023-05-07T03:59:46;5.97;;;5.77;;
17925;SDS011;9088;55.674;13.354;2023-05-07T04:02:13;5.87;;;5.67;;
17925;SDS011;9088;55.674;13.354;2023-05-07T04:04:40;5.67;;;5.47;;
17925;SDS011;9088;55.674;13.354;2023-05-07T04:07:07;5.70;;;5.50;;
17925;SDS011;9088;55.674;13.354;2023-05-07T04:09:34;5.60;;;5.40;;
17925;SDS011;9088;55.674;13.354;2023-05-07T04:12:02;5.70;;;5.50;;
17925;SDS011;9088;55.674;13.354;2023-05-07T04:14:29;5.87;;;5.67;;
17925;SDS011;9088;55.674;13.354;2023-05-07T04:16:58;5.70;;;5.50;;
17925;SDS011;9088;55.674;13.354;2023-05-07T04:19:25;5.70;;;5.50;;
17925;SDS011;9088;55.674;13.354;2023-05-07T04:21:52;5.77;;;5.57;;
17925;SDS011;9088;55.674;13.354;2023-05-07T04:24:19;5.70;;;5.50;;
17925;SDS011;9088;55.674;13.354;2023-05-07T04:26:46;5.70;;;5.50;;
17925;SDS011;9088;55.674;13.354;2023-05-07T04:29:13;5.60;;;5.40;;
17925;SDS011;9088;55.674;13.354;2023-05-07T04:31:40;5.60;;;5.40;;
17925;SDS011;9088;55.674;13.354;2023-05-07T04:34:10;5.40;;;5.20;;
17925;SDS011;9088;55.674;13.354;2023-05-07T04:36:37;5.47;;;5.27;;
17925;SDS011;9088;55.674;13.354;2023-05-07T04:39:05;5.40;;;5.20;;
17925;SDS011;9088;55.674;13.354;2023-05-07T04:41:32;5.50;;;5.30;;
17925;SDS011;9088;55.674;13.354;2023-05-07T04:44:01;5.37;;;5.17;;
17925;SDS011;9088;55.674;13.354;2023-05-07T04:46:29;5.60;;;5.40;;
17925;SDS011;9088;55.674;13.354;2023-05-07T04:48:56;5.17;;;4.97;;
17925;SDS011;9088;55.674;13.354;2023-05-07T04:51:24;5.40;;;5.20;;
17925;SDS011;9088;55.674;13.354;2023-05-07T04:53:51;5.30;;;5.10;;
17925;SDS011;9088;55.674;13.354;2023-05-07T04:56:18;5.30;;;5.10;;
17925;SDS011;9088;55.674;13.354;2023-05-07T04:58:45;5.30;;;5.10;;
17925;SDS011;9088;55.674;13.354;2023-05-07T05:01:12;5.30;;;5.10;;
17925;SDS011;9088;55.674;13.354;2023-05-07T05:03:39;5.10;;;4.90;;
17925;SDS011;9088;55.674;13.354;2023-05-07T05:06:06;4.90;;;4.70;;
17925;SDS011;9088;55.674;13.354;2023-05-07T05:08:35;4.90;;;4.70;;
17925;SDS011;9088;55.674;13.354;2023-05-07T05:11:02;4.67;;;4.47;;
17925;SDS011;9088;55.674;13.354;2023-05-07T05:13:29;4.90;;;4.70;;
17925;SDS011;9088;55.674;13.354;2023-05-07T05:15:56;4.70;;;4.50;;
17925;SDS011;9088;55.674;13.354;2023-05-07T05:18:23;5.00;;;4.80;;
17925;SDS011;9088;55.674;13.354;2023-05-07T05:20:50;4.90;;;4.70;;
17925;SDS011;9088;55.674;13.354;2023-05-07T05:23:18;4.40;;;4.20;;
17925;SDS011;9088;55.674;13.354;2023-05-07T05:25:46;4.10;;;4.00;;
17925;SDS011;9088;55.674;13.354;2023-05-07T05:28:13;4.10;;;4.00;;
17925;SDS011;9088;55.674;13.354;2023-05-07T05:30:40;4.27;;;4.10;;
17925;SDS011;9088;55.674;13.354;2023-05-07T05:33:07;4.70;;;4.50;;
17925;SDS011;9088;55.674;13.354;2023-05-07T05:35:34;5.30;;;5.10;;
17925;SDS011;9088;55.674;13.354;2023-05-07T05:38:01;5.07;;;4.87;;
17925;SDS011;9088;55.674;13.354;2023-05-07T05:40:29;5.10;;;4.90;;
17925;SDS011;9088;55.674;13.354;2023-05-07T05:42:57;4.53;;;4.33;;
17925;SDS011;9088;55.674;13.354;2023-05-07T05:45:24;4.40;;;4.20;;
17925;SDS011;9088;55.674;13.354;2023-05-07T05:47:51;4.30;;;4.10;;
17925;SDS011;9088;55.674;13.354;2023-05-07T05:50:18;4.17;;;4.07;;
17925;SDS011;9088;55.674;13.354;2023-05-07T05:52:45;4.80;;;4.60;;
17925;SDS011;9088;55.674;13.354;2023-05-07T05:55:13;4.43;;;4.23;;
17925;SDS011;9088;55.674;13.354;2023-05-07T05:57:41;4.40;;;4.20;;
17925;SDS011;9088;55.674;13.354;2023-05-07T06:00:10;4.67;;;4.47;;
17925;SDS011;9088;55.674;13.354;2023-05-07T06:02:37;4.40;;;4.20;;
17925;SDS011;9088;55.674;13.354;2023-05-07T06:05:04;4.33;;;4.20;;
17925;SDS011;9088;55.674;13.354;2023-05-07T06:07:32;4.23;;;4.10;;
17925;SDS011;9088;55.674;13.354;2023-05-07T06:09:59;4.60;;;4.40;;
17925;SDS011;9088;55.674;13.354;2023-05-07T06:12:26;3.93;;;3.83;;
17925;SDS011;9088;55.674;13.354;2023-05-07T06:14:53;3.80;;;3.70;;
17925;SDS011;9088;55.674;13.354;2023-05-07T06:17:21;4.00;;;3.90;;
17925;SDS011;9088;55.674;13.354;2023-05-07T06:19:48;3.90;;;3.80;;
17925;SDS011;9088;55.674;13.354;2023-05-07T06:22:15;3.50;;;3.40;;
17925;SDS011;9088;55.674;13.354;2023-05-07T06:24:42;3.23;;;3.13;;
17925;SDS011;9088;55.674;13.354;2023-05-07T06:27:10;3.20;;;3.10;;
17925;SDS011;9088;55.674;13.354;2023-05-07T06:29:37;3.10;;;3.00;;
17925;SDS011;9088;55.674;13.354;2023-05-07T06:32:06;3.00;;;2.90;;
17925;SDS011;9088;55.674;13.354;2023-05-07T06:34:35;2.90;;;2.80;;
17925;SDS011;9088;55.674;13.354;2023-05-07T06:37:02;2.90;;;2.80;;
17925;SDS011;9088;55.674;13.354;2023-05-07T06:39:29;2.73;;;2.63;;
17925;SDS011;9088;55.674;13.354;2023-05-07T06:41:56;2.70;;;2.60;;
17925;SDS011;9088;55.674;13.354;2023-05-07T06:44:23;2.57;;;2.47;;
17925;SDS011;9088;55.674;13.354;2023-05-07T06:46:50;2.50;;;2.40;;
17925;SDS011;9088;55.674;13.354;2023-05-07T06:49:17;2.40;;;2.30;;
17925;SDS011;9088;55.674;13.354;2023-05-07T06:51:46;2.40;;;2.30;;
17925;SDS011;9088;55.674;13.354;2023-05-07T06:54:13;2.40;;;2.30;;
17925;SDS011;9088;55.674;13.354;2023-05-07T06:56:40;2.30;;;2.20;;
17925;SDS011;9088;55.674;13.354;2023-05-07T06:59:07;2.20;;;2.10;;
17925;SDS011;9088;55.674;13.354;2023-05-07T07:01:34;2.10;;;2.00;;
17925;SDS011;9088;55.674;13.354;2023-05-07T07:04:01;1.83;;;1.83;;
17925;SDS011;9088;55.674;13.354;2023-05-07T07:06:28;2.00;;;1.90;;
17925;SDS011;9088;55.674;13.354;2023-05-07T07:08:58;2.10;;;2.00;;
17925;SDS011;9088;55.674;13.354;2023-05-07T07:11:25;1.70;;;1.70;;
17925;SDS011;9088;55.674;13.354;2023-05-07T07:13:52;1.90;;;1.90;;
17925;SDS011;9088;55.674;13.354;2023-05-07T07:16:19;1.90;;;1.90;;
17925;SDS011;9088;55.674;13.354;2023-05-07T07:18:46;1.70;;;1.70;;
17925;SDS011;9088;55.674;13.354;2023-05-07T07:21:13;1.63;;;1.63;;
17925;SDS011;9088;55.674;13.354;2023-05-07T07:23:40;1.60;;;1.60;;
17925;SDS011;9088;55.674;13.354;2023-05-07T07:26:09;1.70;;;1.70;;
17925;SDS011;9088;55.674;13.354;2023-05-07T07:28:41;1.60;;;1.60;;
17925;SDS011;9088;55.674;13.354;2023-05-07T07:31:08;1.60;;;1.60;;
17925;SDS011;9088;55.674;13.354;2023-05-07T07:33:35;1.80;;;1.80;;
17925;SDS011;9088;55.674;13.354;2023-05-07T07:36:02;2.20;;;2.10;;
17925;SDS011;9088;55.674;13.354;2023-05-07T07:38:30;2.20;;;2.10;;
17925;SDS011;9088;55.674;13.354;2023-05-07T07:40:57;2.30;;;2.20;;
17925;SDS011;9088;55.674;13.354;2023-05-07T07:43:25;2.23;;;2.13;;
17925;SDS011;9088;55.674;13.354;2023-05-07T07:45:52;2.30;;;2.20;;
17925;SDS011;9088;55.674;13.354;2023-05-07T07:48:19;2.33;;;2.23;;
17925;SDS011;9088;55.674;13.354;2023-05-07T07:50:48;2.10;;;2.00;;
17925;SDS011;9088;55.674;13.354;2023-05-07T07:53:15;2.30;;;2.20;;
17925;SDS011;9088;55.674;13.354;2023-05-07T07:55:42;2.20;;;2.10;;
17925;SDS011;9088;55.674;13.354;2023-05-07T07:58:09;2.17;;;2.07;;
17925;SDS011;9088;55.674;13.354;2023-05-07T08:00:38;2.20;;;2.10;;
17925;SDS011;9088;55.674;13.354;2023-05-07T08:03:05;2.30;;;2.20;;
17925;SDS011;9088;55.674;13.354;2023-05-07T08:05:32;2.10;;;2.00;;
17925;SDS011;9088;55.674;13.354;2023-05-07T08:07:59;2.13;;;2.03;;
17925;SDS011;9088;55.674;13.354;2023-05-07T08:10:26;2.00;;;1.90;;
17925;SDS011;9088;55.674;13.354;2023-05-07T08:12:53;1.80;;;1.80;;
17925;SDS011;9088;55.674;13.354;2023-05-07T08:15:20;2.20;;;2.10;;
17925;SDS011;9088;55.674;13.354;2023-05-07T08:17:49;2.10;;;2.00;;
17925;SDS011;9088;55.674;13.354;2023-05-07T08:20:16;2.10;;;2.00;;
17925;SDS011;9088;55.674;13.354;2023-05-07T08:22:43;2.30;;;2.20;;
17925;SDS011;9088;55.674;13.354;2023-05-07T08:25:10;2.20;;;2.10;;
17925;SDS011;9088;55.674;13.354;2023-05-07T08:27:37;2.20;;;2.10;;
17925;SDS011;9088;55.674;13.354;2023-05-07T08:30:04;2.30;;;2.20;;
17925;SDS011;9088;55.674;13.354;2023-05-07T08:32:31;2.33;;;2.23;;
17925;SDS011;9088;55.674;13.354;2023-05-07T08:35:00;2.27;;;2.17;;
17925;SDS011;9088;55.674;13.354;2023-05-07T08:37:27;2.40;;;2.30;;
17925;SDS011;9088;55.674;13.354;2023-05-07T08:39:54;2.40;;;2.30;;
17925;SDS011;9088;55.674;13.354;2023-05-07T08:42:21;2.20;;;2.10;;
17925;SDS011;9088;55.674;13.354;2023-05-07T08:44:50;2.10;;;2.00;;
17925;SDS011;9088;55.674;13.354;2023-05-07T08:47:19;2.20;;;2.10;;
17925;SDS011;9088;55.674;13.354;2023-05-07T08:49:46;2.13;;;2.03;;
17925;SDS011;9088;55.674;13.354;2023-05-07T08:52:16;2.60;;;2.50;;
17925;SDS011;9088;55.674;13.354;2023-05-07T08:54:44;2.50;;;2.40;;
17925;SDS011;9088;55.674;13.354;2023-05-07T08:57:12;2.40;;;2.30;;
17925;SDS011;9088;55.674;13.354;2023-05-07T08:59:39;2.40;;;2.30;;
17925;SDS011;9088;55.674;13.354;2023-05-07T09:02:07;2.30;;;2.20;;
17925;SDS011;9088;55.674;13.354;2023-05-07T09:04:35;2.30;;;2.20;;
17925;SDS011;9088;55.674;13.354;2023-05-07T09:07:02;2.23;;;2.13;;
17925;SDS011;9088;55.674;13.354;2023-05-07T09:09:33;2.20;;;2.10;;
17925;SDS011;9088;55.674;13.354;2023-05-07T09:12:00;2.10;;;2.00;;
17925;SDS011;9088;55.674;13.354;2023-05-07T09:14:28;2.17;;;2.07;;
17925;SDS011;9088;55.674;13.354;2023-05-07T09:16:56;2.20;;;2.10;;
17925;SDS011;9088;55.674;13.354;2023-05-07T09:19:23;2.10;;;2.00;;
17925;SDS011;9088;55.674;13.354;2023-05-07T09:21:57;2.10;;;2.00;;
17925;SDS011;9088;55.674;13.354;2023-05-07T09:24:24;1.87;;;1.87;;
17925;SDS011;9088;55.674;13.354;2023-05-07T09:26:53;2.20;;;2.10;;
17925;SDS011;9088;55.674;13.354;2023-05-07T09:29:20;2.13;;;2.03;;
17925;SDS011;9088;55.674;13.354;2023-05-07T09:31:47;1.80;;;1.80;;
17925;SDS011;9088;55.674;13.354;2023-05-07T09:34:14;1.83;;;1.83;;
17925;SDS011;9088;55.674;13.354;2023-05-07T09:36:41;2.03;;;1.93;;
17925;SDS011;9088;55.674;13.354;2023-05-07T09:39:08;2.10;;;2.00;;
17925;SDS011;9088;55.674;13.354;2023-05-07T09:41:43;2.23;;;2.13;;
17925;SDS011;9088;55.674;13.354;2023-05-07T09:44:11;2.20;;;2.10;;
17925;SDS011;9088;55.674;13.354;2023-05-07T09:46:39;1.90;;;1.90;;
17925;SDS011;9088;55.674;13.354;2023-05-07T09:49:09;2.10;;;2.00;;
17925;SDS011;9088;55.674;13.354;2023-05-07T09:51:39;1.83;;;1.83;;
17925;SDS011;9088;55.674;13.354;2023-05-07T09:54:08;2.20;;;2.10;;
17925;SDS011;9088;55.674;13.354;2023-05-07T09:56:35;1.97;;;1.90;;
17925;SDS011;9088;55.674;13.354;2023-05-07T09:59:03;1.80;;;1.80;;
17925;SDS011;9088;55.674;13.354;2023-05-07T10:01:32;1.80;;;1.80;;
17925;SDS011;9088;55.674;13.354;2023-05-07T10:04:01;2.07;;;1.97;;
17925;SDS011;9088;55.674;13.354;2023-05-07T10:06:29;1.93;;;1.90;;
17925;SDS011;9088;55.674;13.354;2023-05-07T10:08:56;2.10;;;2.00;;
17925;SDS011;9088;55.674;13.354;2023-05-07T10:11:24;2.07;;;1.97;;
17925;SDS011;9088;55.674;13.354;2023-05-07T10:13:51;2.10;;;2.00;;
17925;SDS011;9088;55.674;13.354;2023-05-07T10:16:19;2.00;;;1.90;;
17925;SDS011;9088;55.674;13.354;2023-05-07T10:18:47;2.10;;;2.00;;
17925;SDS011;9088;55.674;13.354;2023-05-07T10:21:15;2.10;;;2.00;;
17925;SDS011;9088;55.674;13.354;2023-05-07T10:23:43;2.00;;;1.90;;
17925;SDS011;9088;55.674;13.354;2023-05-07T10:26:11;1.93;;;1.90;;
17925;SDS011;9088;55.674;13.354;2023-05-07T10:28:40;2.10;;;2.00;;
17925;SDS011;9088;55.674;13.354;2023-05-07T10:31:12;1.97;;;1.90;;
17925;SDS011;9088;55.674;13.354;2023-05-07T10:33:40;2.20;;;2.10;;
17925;SDS011;9088;55.674;13.354;2023-05-07T10:36:10;2.10;;;2.00;;
17925;SDS011;9088;55.674;13.354;2023-05-07T10:38:37;2.10;;;2.00;;
17925;SDS011;9088;55.674;13.354;2023-05-07T10:41:05;1.90;;;1.90;;
17925;SDS011;9088;55.674;13.354;2023-05-07T10:43:42;2.10;;;2.00;;
17925;SDS011;9088;55.674;13.354;2023-05-07T10:46:10;2.10;;;2.00;;
17925;SDS011;9088;55.674;13.354;2023-05-07T10:51:21;1.90;;;1.90;;
17925;SDS011;9088;55.674;13.354;2023-05-07T10:53:48;2.20;;;2.10;;
17925;SDS011;9088;55.674;13.354;2023-05-07T10:56:35;1.80;;;1.80;;
17925;SDS011;9088;55.674;13.354;2023-05-07T11:01:49;2.03;;;1.93;;
17925;SDS011;9088;55.674;13.354;2023-05-07T11:04:16;2.10;;;2.00;;
17925;SDS011;9088;55.674;13.354;2023-05-07T11:12:17;2.13;;;2.03;;
17925;SDS011;9088;55.674;13.354;2023-05-07T11:14:44;2.03;;;1.93;;
17925;SDS011;9088;55.674;13.354;2023-05-07T11:17:11;2.10;;;2.00;;
17925;SDS011;9088;55.674;13.354;2023-05-07T11:19:47;2.10;;;2.00;;
17925;SDS011;9088;55.674;13.354;2023-05-07T11:24:58;1.87;;;1.87;;
17925;SDS011;9088;55.674;13.354;2023-05-07T11:27:27;2.10;;;2.00;;
17925;SDS011;9088;55.674;13.354;2023-05-07T11:29:54;2.00;;;1.90;;
17925;SDS011;9088;55.674;13.354;2023-05-07T11:32:22;2.10;;;2.00;;
17925;SDS011;9088;55.674;13.354;2023-05-07T11:34:51;2.10;;;2.00;;
17925;SDS011;9088;55.674;13.354;2023-05-07T11:37:18;2.20;;;2.10;;
17925;SDS011;9088;55.674;13.354;2023-05-07T11:39:45;2.00;;;1.90;;
17925;SDS011;9088;55.674;13.354;2023-05-07T11:42:24;2.10;;;2.00;;
17925;SDS011;9088;55.674;13.354;2023-05-07T11:44:53;2.00;;;1.90;;
17925;SDS011;9088;55.674;13.354;2023-05-07T11:47:20;2.13;;;2.03;;
17925;SDS011;9088;55.674;13.354;2023-05-07T11:49:47;2.10;;;2.00;;
17925;SDS011;9088;55.674;13.354;2023-05-07T11:52:15;2.17;;;2.07;;
17925;SDS011;9088;55.674;13.354;2023-05-07T11:54:48;2.00;;;1.90;;
17925;SDS011;9088;55.674;13.354;2023-05-07T11:57:15;2.07;;;1.97;;
17925;SDS011;9088;55.674;13.354;2023-05-07T11:59:42;2.10;;;2.00;;
17925;SDS011;9088;55.674;13.354;2023-05-07T12:02:11;2.17;;;2.07;;
17925;SDS011;9088;55.674;13.354;2023-05-07T12:04:40;2.13;;;2.03;;
17925;SDS011;9088;55.674;13.354;2023-05-07T12:07:11;2.20;;;2.10;;
17925;SDS011;9088;55.674;13.354;2023-05-07T12:09:38;2.10;;;2.00;;
17925;SDS011;9088;55.674;13.354;2023-05-07T12:12:05;2.10;;;2.00;;
17925;SDS011;9088;55.674;13.354;2023-05-07T12:14:33;2.10;;;2.00;;
17925;SDS011;9088;55.674;13.354;2023-05-07T12:17:03;2.20;;;2.10;;
17925;SDS011;9088;55.674;13.354;2023-05-07T12:19:32;2.10;;;2.00;;
17925;SDS011;9088;55.674;13.354;2023-05-07T12:22:00;2.10;;;2.00;;
17925;SDS011;9088;55.674;13.354;2023-05-07T12:24:27;2.20;;;2.10;;
17925;SDS011;9088;55.674;13.354;2023-05-07T12:26:55;2.10;;;2.00;;
17925;SDS011;9088;55.674;13.354;2023-05-07T12:29:22;1.90;;;1.90;;
17925;SDS011;9088;55.674;13.354;2023-05-07T12:31:49;1.90;;;1.90;;
17925;SDS011;9088;55.674;13.354;2023-05-07T12:34:16;1.90;;;1.90;;
17925;SDS011;9088;55.674;13.354;2023-05-07T12:36:45;1.80;;;1.80;;
17925;SDS011;9088;55.674;13.354;2023-05-07T12:39:14;1.80;;;1.80;;
17925;SDS011;9088;55.674;13.354;2023-05-07T12:41:54;2.10;;;2.00;;
17925;SDS011;9088;55.674;13.354;2023-05-07T12:44:21;1.80;;;1.80;;
17925;SDS011;9088;55.674;13.354;2023-05-07T12:46:49;1.80;;;1.80;;
17925;SDS011;9088;55.674;13.354;2023-05-07T12:49:16;1.80;;;1.80;;
17925;SDS011;9088;55.674;13.354;2023-05-07T12:51:45;2.00;;;1.90;;
17925;SDS011;9088;55.674;13.354;2023-05-07T12:54:13;1.80;;;1.80;;
17925;SDS011;9088;55.674;13.354;2023-05-07T12:56:40;1.90;;;1.90;;
17925;SDS011;9088;55.674;13.354;2023-05-07T12:59:07;2.00;;;1.90;;
17925;SDS011;9088;55.674;13.354;2023-05-07T13:01:34;1.83;;;1.83;;
17925;SDS011;9088;55.674;13.354;2023-05-07T13:04:02;2.00;;;1.90;;
17925;SDS011;9088;55.674;13.354;2023-05-07T13:06:30;1.80;;;1.80;;
17925;SDS011;9088;55.674;13.354;2023-05-07T13:08:58;1.70;;;1.70;;
17925;SDS011;9088;55.674;13.354;2023-05-07T13:11:26;1.70;;;1.70;;
17925;SDS011;9088;55.674;13.354;2023-05-07T13:13:53;1.90;;;1.90;;
17925;SDS011;9088;55.674;13.354;2023-05-07T13:16:20;1.80;;;1.80;;
17925;SDS011;9088;55.674;13.354;2023-05-07T13:18:46;1.80;;;1.80;;
17925;SDS011;9088;55.674;13.354;2023-05-07T13:21:13;1.77;;;1.77;;
17925;SDS011;9088;55.674;13.354;2023-05-07T13:23:40;1.73;;;1.73;;
17925;SDS011;9088;55.674;13.354;2023-05-07T13:26:09;1.80;;;1.80;;
17925;SDS011;9088;55.674;13.354;2023-05-07T13:28:36;1.80;;;1.80;;
17925;SDS011;9088;55.674;13.354;2023-05-07T13:31:03;1.87;;;1.87;;
17925;SDS011;9088;55.674;13.354;2023-05-07T13:33:30;1.80;;;1.80;;
17925;SDS011;9088;55.674;13.354;2023-05-07T13:35:57;1.90;;;1.90;;
17925;SDS011;9088;55.674;13.354;2023-05-07T13:38:25;1.80;;;1.80;;
17925;SDS011;9088;55.674;13.354;2023-05-07T13:40:52;2.00;;;1.90;;
17925;SDS011;9088;55.674;13.354;2023-05-07T13:43:20;1.70;;;1.70;;
17925;SDS011;9088;55.674;13.354;2023-05-07T13:45:47;1.80;;;1.80;;
17925;SDS011;9088;55.674;13.354;2023-05-07T13:48:14;1.93;;;1.90;;
17925;SDS011;9088;55.674;13.354;2023-05-07T13:50:42;2.00;;;1.93;;
17925;SDS011;9088;55.674;13.354;2023-05-07T13:53:09;1.90;;;1.90;;
17925;SDS011;9088;55.674;13.354;2023-05-07T13:55:36;1.70;;;1.70;;
17925;SDS011;9088;55.674;13.354;2023-05-07T13:58:03;1.97;;;1.90;;
17925;SDS011;9088;55.674;13.354;2023-05-07T14:00:31;1.60;;;1.60;;
17925;SDS011;9088;55.674;13.354;2023-05-07T14:02:58;1.70;;;1.70;;
17925;SDS011;9088;55.674;13.354;2023-05-07T14:05:25;1.70;;;1.70;;
17925;SDS011;9088;55.674;13.354;2023-05-07T14:07:53;1.73;;;1.73;;
17925;SDS011;9088;55.674;13.354;2023-05-07T14:10:20;1.70;;;1.70;;
17925;SDS011;9088;55.674;13.354;2023-05-07T14:12:47;1.67;;;1.67;;
17925;SDS011;9088;55.674;13.354;2023-05-07T14:15:14;1.80;;;1.80;;
17925;SDS011;9088;55.674;13.354;2023-05-07T14:17:43;1.80;;;1.80;;
17925;SDS011;9088;55.674;13.354;2023-05-07T14:20:11;1.80;;;1.80;;
17925;SDS011;9088;55.674;13.354;2023-05-07T14:22:39;1.80;;;1.80;;
17925;SDS011;9088;55.674;13.354;2023-05-07T14:25:06;1.63;;;1.63;;
17925;SDS011;9088;55.674;13.354;2023-05-07T14:27:34;1.73;;;1.73;;
17925;SDS011;9088;55.674;13.354;2023-05-07T14:30:01;1.70;;;1.70;;
17925;SDS011;9088;55.674;13.354;2023-05-07T14:32:28;1.50;;;1.50;;
17925;SDS011;9088;55.674;13.354;2023-05-07T14:34:56;1.67;;;1.67;;
17925;SDS011;9088;55.674;13.354;2023-05-07T14:37:23;1.70;;;1.70;;
17925;SDS011;9088;55.674;13.354;2023-05-07T14:39:50;1.70;;;1.70;;
17925;SDS011;9088;55.674;13.354;2023-05-07T14:42:17;1.60;;;1.60;;
17925;SDS011;9088;55.674;13.354;2023-05-07T14:44:45;1.50;;;1.50;;
17925;SDS011;9088;55.674;13.354;2023-05-07T14:47:13;1.60;;;1.60;;
17925;SDS011;9088;55.674;13.354;2023-05-07T14:49:40;1.73;;;1.73;;
17925;SDS011;9088;55.674;13.354;2023-05-07T14:52:09;1.70;;;1.70;;
17925;SDS011;9088;55.674;13.354;2023-05-07T14:57:15;1.70;;;1.70;;
17925;SDS011;9088;55.674;13.354;2023-05-07T14:59:43;1.70;;;1.70;;
17925;SDS011;9088;55.674;13.354;2023-05-07T15:02:11;1.77;;;1.77;;
17925;SDS011;9088;55.674;13.354;2023-05-07T15:04:38;1.50;;;1.50;;
17925;SDS011;9088;55.674;13.354;2023-05-07T15:07:11;1.60;;;1.60;;